createdAt,value
2018-12-06T00:03:00.000Z,99613
2018-12-06T00:08:00.000Z,99597
2018-12-06T00:13:00.000Z,99603
2018-12-06T00:18:00.000Z,99606
2018-12-06T00:23:00.000Z,99605
2018-12-06T00:29:00.000Z,99586
2018-12-06T00:34:00.000Z,99576
2018-12-06T00:39:00.000Z,99581
2018-12-06T00:44:00.000Z,99574
2018-12-06T00:49:00.000Z,99550
2018-12-06T00:54:00.000Z,99550
2018-12-06T00:59:00.000Z,99539
2018-12-06T01:04:00.000Z,99538
2018-12-06T01:09:00.000Z,99543
2018-12-06T01:14:00.000Z,99535
2018-12-06T01:19:00.000Z,99528
2018-12-06T01:24:00.000Z,99512
2018-12-06T01:29:00.000Z,99508
2018-12-06T01:34:00.000Z,99498
2018-12-06T01:39:00.000Z,99498
2018-12-06T01:44:00.000Z,99496
2018-12-06T01:49:00.000Z,99483
2018-12-06T01:54:00.000Z,99478
2018-12-06T01:59:00.000Z,99471
2018-12-06T02:04:00.000Z,99452
2018-12-06T02:09:00.000Z,99451
2018-12-06T02:14:00.000Z,99435
2018-12-06T02:19:00.000Z,99429
2018-12-06T02:24:00.000Z,99427
2018-12-06T02:29:00.000Z,99416
2018-12-06T02:34:00.000Z,99414
2018-12-06T02:39:00.000Z,99407
2018-12-06T02:44:00.000Z,99399
2018-12-06T02:49:00.000Z,99398
2018-12-06T02:54:00.000Z,99383
2018-12-06T02:59:00.000Z,99388
2018-12-06T03:04:00.000Z,99372
2018-12-06T03:09:00.000Z,99379
2018-12-06T03:14:00.000Z,99378
2018-12-06T03:19:00.000Z,99382
2018-12-06T03:24:00.000Z,99374
2018-12-06T03:29:00.000Z,99356
2018-12-06T03:34:00.000Z,99361
2018-12-06T03:39:00.000Z,99350
2018-12-06T03:44:00.000Z,99349
2018-12-06T03:49:00.000Z,99332
2018-12-06T03:54:00.000Z,99336
2018-12-06T03:59:00.000Z,99334
2018-12-06T04:04:00.000Z,99338
2018-12-06T04:09:00.000Z,99338
2018-12-06T04:14:00.000Z,99339
2018-12-06T04:19:00.000Z,99325
2018-12-06T04:24:00.000Z,99327
2018-12-06T04:29:00.000Z,99331
2018-12-06T04:34:00.000Z,99329
2018-12-06T04:39:00.000Z,99333
2018-12-06T04:44:00.000Z,99330
2018-12-06T04:49:00.000Z,99317
2018-12-06T04:54:00.000Z,99318
2018-12-06T04:59:00.000Z,99307
2018-12-06T05:04:00.000Z,99301
2018-12-06T05:09:00.000Z,99300
2018-12-06T05:14:00.000Z,99291
2018-12-06T05:19:00.000Z,99291
2018-12-06T05:24:00.000Z,99293
2018-12-06T05:29:00.000Z,99276
2018-12-06T05:34:00.000Z,99298
2018-12-06T05:39:00.000Z,99307
2018-12-06T05:44:00.000Z,99306
2018-12-06T05:49:00.000Z,99296
2018-12-06T05:54:00.000Z,99287
2018-12-06T05:59:00.000Z,99297
2018-12-06T06:04:00.000Z,99295
2018-12-06T06:09:00.000Z,99285
2018-12-06T06:14:00.000Z,99271
2018-12-06T06:19:00.000Z,99279
2018-12-06T06:24:00.000Z,99295
2018-12-06T06:30:00.000Z,99274
2018-12-06T06:35:00.000Z,99324
2018-12-06T06:40:00.000Z,99336
2018-12-06T06:45:00.000Z,99346
2018-12-06T06:50:00.000Z,99349
2018-12-06T06:55:00.000Z,99347
2018-12-06T07:00:00.000Z,99310
2018-12-06T07:05:00.000Z,99333
2018-12-06T07:10:00.000Z,99338
2018-12-06T07:15:00.000Z,99341
2018-12-06T07:20:00.000Z,99336
2018-12-06T07:25:00.000Z,99348
2018-12-06T07:30:00.000Z,99361
2018-12-06T07:35:00.000Z,99357
2018-12-06T07:40:00.000Z,99366
2018-12-06T07:45:00.000Z,99370
2018-12-06T07:50:00.000Z,99369
2018-12-06T07:55:00.000Z,99369
2018-12-06T08:00:00.000Z,99379
2018-12-06T08:05:00.000Z,99368
2018-12-06T08:10:00.000Z,99367
2018-12-06T08:15:00.000Z,99373
2018-12-06T08:20:00.000Z,99370
2018-12-06T08:25:00.000Z,99382
2018-12-06T08:30:00.000Z,99374
2018-12-06T08:35:00.000Z,99388
2018-12-06T08:40:00.000Z,99396
2018-12-06T08:45:00.000Z,99402
2018-12-06T08:50:00.000Z,99391
2018-12-06T08:55:00.000Z,99407
2018-12-06T09:00:00.000Z,99403
2018-12-06T09:05:00.000Z,99396
2018-12-06T09:10:00.000Z,99392
2018-12-06T09:15:00.000Z,99400
2018-12-06T09:20:00.000Z,99405
2018-12-06T09:25:00.000Z,99406
2018-12-06T09:30:00.000Z,99399
2018-12-06T09:35:00.000Z,99403
2018-12-06T09:40:00.000Z,99395
2018-12-06T09:45:00.000Z,99389
2018-12-06T09:50:00.000Z,99394
2018-12-06T09:55:00.000Z,99377
2018-12-06T10:00:00.000Z,99378
2018-12-06T10:05:00.000Z,99378
2018-12-06T10:10:00.000Z,99370
2018-12-06T10:15:00.000Z,99363
2018-12-06T10:20:00.000Z,99382
2018-12-06T10:25:00.000Z,99361
2018-12-06T10:30:00.000Z,99374
2018-12-06T10:35:00.000Z,99376
2018-12-06T10:40:00.000Z,99369
2018-12-06T10:45:00.000Z,99366
2018-12-06T10:50:00.000Z,99367
2018-12-06T10:55:00.000Z,99364
2018-12-06T11:00:00.000Z,99381
2018-12-06T11:05:00.000Z,99372
2018-12-06T11:10:00.000Z,99369
2018-12-06T11:15:00.000Z,99370
2018-12-06T11:20:00.000Z,99358
2018-12-06T11:25:00.000Z,99372
2018-12-06T11:30:00.000Z,99375
2018-12-06T11:35:00.000Z,99369
2018-12-06T11:40:00.000Z,99373
2018-12-06T11:45:00.000Z,99387
2018-12-06T11:50:00.000Z,99383
2018-12-06T11:55:00.000Z,99376
2018-12-06T12:00:00.000Z,99367
2018-12-06T12:05:00.000Z,99360
2018-12-06T12:10:00.000Z,99379
2018-12-06T12:16:00.000Z,99384
2018-12-06T12:21:00.000Z,99371
2018-12-06T12:26:00.000Z,99373
2018-12-06T12:31:00.000Z,99372
2018-12-06T12:36:00.000Z,99377
2018-12-06T12:41:00.000Z,99387
2018-12-06T12:46:00.000Z,99372
2018-12-06T12:51:00.000Z,99383
2018-12-06T12:56:00.000Z,99385
2018-12-06T13:01:00.000Z,99387
2018-12-06T13:06:00.000Z,99372
2018-12-06T13:11:00.000Z,99370
2018-12-06T13:16:00.000Z,99364
2018-12-06T13:21:00.000Z,99360
2018-12-06T13:26:00.000Z,99358
2018-12-06T13:31:00.000Z,99340
2018-12-06T13:36:00.000Z,99348
2018-12-06T13:41:00.000Z,99337
2018-12-06T13:46:00.000Z,99333
2018-12-06T13:51:00.000Z,99317
2018-12-06T13:56:00.000Z,99331
2018-12-06T14:01:00.000Z,99320
2018-12-06T14:06:00.000Z,99329
2018-12-06T14:11:00.000Z,99339
2018-12-06T14:16:00.000Z,99326
2018-12-06T14:21:00.000Z,99335
2018-12-06T14:26:00.000Z,99336
2018-12-06T14:31:00.000Z,99341
2018-12-06T14:36:00.000Z,99349
2018-12-06T14:41:00.000Z,99359
2018-12-06T14:46:00.000Z,99356
2018-12-06T14:51:00.000Z,99369
2018-12-06T14:56:00.000Z,99382
2018-12-06T15:01:00.000Z,99387
2018-12-06T15:06:00.000Z,99383
2018-12-06T15:11:00.000Z,99360
2018-12-06T15:16:00.000Z,99376
2018-12-06T15:21:00.000Z,99366
2018-12-06T15:26:00.000Z,99361
2018-12-06T15:31:00.000Z,99370
2018-12-06T15:36:00.000Z,99373
2018-12-06T15:41:00.000Z,99377
2018-12-06T15:46:00.000Z,99376
2018-12-06T15:51:00.000Z,99377
2018-12-06T15:56:00.000Z,99383
2018-12-06T16:01:00.000Z,99398
2018-12-06T16:06:00.000Z,99396
2018-12-06T16:11:00.000Z,99394
2018-12-06T16:16:00.000Z,99393
2018-12-06T16:21:00.000Z,99385
2018-12-06T16:26:00.000Z,99390
2018-12-06T16:31:00.000Z,99391
2018-12-06T16:36:00.000Z,99391
2018-12-06T16:41:00.000Z,99398
2018-12-06T16:46:00.000Z,99392
2018-12-06T16:51:00.000Z,99384
2018-12-06T16:56:00.000Z,99382
2018-12-06T17:01:00.000Z,99385
2018-12-06T17:06:00.000Z,99392
2018-12-06T17:11:00.000Z,99389
2018-12-06T17:16:00.000Z,99393
2018-12-06T17:21:00.000Z,99401
2018-12-06T17:26:00.000Z,99396
2018-12-06T17:31:00.000Z,99400
2018-12-06T17:36:00.000Z,99391
2018-12-06T17:41:00.000Z,99387
2018-12-06T17:46:00.000Z,99398
2018-12-06T17:51:00.000Z,99394
2018-12-06T17:56:00.000Z,99398
2018-12-06T18:01:00.000Z,99396
2018-12-06T18:06:00.000Z,99399
2018-12-06T18:11:00.000Z,99397
2018-12-06T18:16:00.000Z,99403
2018-12-06T18:22:00.000Z,99395
2018-12-06T18:27:00.000Z,99403
2018-12-06T18:32:00.000Z,99406
2018-12-06T18:37:00.000Z,99401
2018-12-06T18:42:00.000Z,99395
2018-12-06T18:47:00.000Z,99396
2018-12-06T18:52:00.000Z,99403
2018-12-06T18:57:00.000Z,99403
2018-12-06T19:02:00.000Z,99402
2018-12-06T19:07:00.000Z,99413
2018-12-06T19:12:00.000Z,99400
2018-12-06T19:17:00.000Z,99390
2018-12-06T19:22:00.000Z,99390
2018-12-06T19:27:00.000Z,99404
2018-12-06T19:32:00.000Z,99390
2018-12-06T19:37:00.000Z,99384
2018-12-06T19:42:00.000Z,99382
2018-12-06T19:47:00.000Z,99379
2018-12-06T19:52:00.000Z,99379
2018-12-06T19:57:00.000Z,99386
2018-12-06T20:02:00.000Z,99389
2018-12-06T20:07:00.000Z,99389
2018-12-06T20:12:00.000Z,99387
2018-12-06T20:17:00.000Z,99391
2018-12-06T20:22:00.000Z,99388
2018-12-06T20:27:00.000Z,99393
2018-12-06T20:32:00.000Z,99380
2018-12-06T20:37:00.000Z,99366
2018-12-06T20:42:00.000Z,99364
2018-12-06T20:47:00.000Z,99367
2018-12-06T20:52:00.000Z,99356
2018-12-06T20:57:00.000Z,99366
2018-12-06T21:02:00.000Z,99360
2018-12-06T21:07:00.000Z,99365
2018-12-06T21:12:00.000Z,99350
2018-12-06T21:17:00.000Z,99338
2018-12-06T21:22:00.000Z,99353
2018-12-06T21:27:00.000Z,99352
2018-12-06T21:32:00.000Z,99343
2018-12-06T21:37:00.000Z,99335
2018-12-06T21:42:00.000Z,99337
2018-12-06T21:47:00.000Z,99325
2018-12-06T21:52:00.000Z,99336
2018-12-06T21:57:00.000Z,99327
2018-12-06T22:02:00.000Z,99315
2018-12-06T22:07:00.000Z,99310
2018-12-06T22:12:00.000Z,99297
2018-12-06T22:17:00.000Z,99297
2018-12-06T22:22:00.000Z,99278
2018-12-06T22:27:00.000Z,99299
2018-12-06T22:32:00.000Z,99298
2018-12-06T22:37:00.000Z,99301
2018-12-06T22:42:00.000Z,99307
2018-12-06T22:47:00.000Z,99302
2018-12-06T22:52:00.000Z,99308
2018-12-06T22:57:00.000Z,99304
2018-12-06T23:02:00.000Z,99286
2018-12-06T23:07:00.000Z,99281
2018-12-06T23:12:00.000Z,99285
2018-12-06T23:17:00.000Z,99271
2018-12-06T23:22:00.000Z,99250
2018-12-06T23:27:00.000Z,99264
2018-12-06T23:32:00.000Z,99261
2018-12-06T23:37:00.000Z,99260
2018-12-06T23:42:00.000Z,99261
2018-12-06T23:47:00.000Z,99245
2018-12-06T23:52:00.000Z,99243
2018-12-06T23:57:00.000Z,99239
